Time;durP1;ratioP1;P1;durP2;ratioP2;P2;SDS_P1;SDS_P2;PMS_P1;PMS_P2;Temp;Humidity;BMP_temperature;BMP_pressure;BME280_temperature;BME280_humidity;BME280_pressure;Samples;Min_cycle;Max_cycle;Signal;HPM_P1;HPM_P2
2023/06/27 00:00:25;;;;;;;6.03;2.10;;;21.70;89.10;;;;;;5042339;28;20200;-28
2023/06/27 00:02:55;;;;;;;4.93;2.10;;;21.70;89.10;;;;;;5036055;28;20227;-28
2023/06/27 00:05:26;;;;;;;5.55;2.20;;;21.70;89.40;;;;;;5041680;28;20590;-28
2023/06/27 00:07:55;;;;;;;7.13;2.78;;;21.60;89.20;;;;;;5041005;28;20559;-28
2023/06/27 00:10:27;;;;;;;5.50;2.33;;;21.60;89.30;;;;;;5041658;28;20197;-28
2023/06/27 00:12:56;;;;;;;4.50;2.28;;;21.50;89.20;;;;;;5042419;28;20207;-28
2023/06/27 00:15:24;;;;;;;6.43;2.80;;;21.50;89.20;;;;;;5057118;28;20496;-28
2023/06/27 00:17:53;;;;;;;8.20;2.65;;;21.50;89.20;;;;;;5040720;28;20224;-28
2023/06/27 00:20:21;;;;;;;5.65;3.13;;;21.50;89.30;;;;;;5042387;28;20204;-28
2023/06/27 00:22:50;;;;;;;7.55;3.22;;;21.50;89.30;;;;;;5042396;28;20636;-29
2023/06/27 00:25:20;;;;;;;7.65;3.20;;;21.40;89.20;;;;;;5042755;28;20200;-28
2023/06/27 00:27:53;;;;;;;6.75;3.17;;;21.40;89.40;;;;;;5042098;28;20200;-28
2023/06/27 00:30:26;;;;;;;6.57;3.60;;;21.30;89.20;;;;;;5040926;28;20741;-28
2023/06/27 00:32:57;;;;;;;5.25;3.05;;;21.30;89.20;;;;;;5057180;28;20356;-28
2023/06/27 00:35:26;;;;;;;10.55;3.95;;;21.30;89.40;;;;;;5042314;28;20207;-28
2023/06/27 00:37:54;;;;;;;6.10;2.75;;;21.30;89.30;;;;;;5042959;28;20209;-28
2023/06/27 00:40:23;;;;;;;6.40;3.03;;;21.20;89.30;;;;;;5040463;28;20200;-28
2023/06/27 00:42:50;;;;;;;7.85;3.33;;;21.20;89.40;;;;;;5040442;28;20305;-28
2023/06/27 00:45:22;;;;;;;6.28;2.78;;;21.20;89.30;;;;;;5042218;28;20197;-27
2023/06/27 00:47:51;;;;;;;7.85;2.85;;;21.10;89.40;;;;;;5041888;28;20413;-28
2023/06/27 00:50:26;;;;;;;5.95;3.10;;;21.10;89.40;;;;;;5040514;28;20234;-28
2023/06/27 00:52:57;;;;;;;9.40;3.13;;;21.10;89.70;;;;;;5040002;28;20215;-28
2023/06/27 00:55:30;;;;;;;5.93;2.63;;;21.10;89.40;;;;;;5042249;28;20258;-30
2023/06/27 00:57:57;;;;;;;5.97;2.67;;;21.00;89.40;;;;;;5044509;28;20211;-30
2023/06/27 01:00:27;;;;;;;6.82;3.13;;;21.00;89.50;;;;;;5060300;28;20207;-30
2023/06/27 01:02:55;;;;;;;6.10;2.92;;;21.00;89.60;;;;;;5045481;28;20215;-30
2023/06/27 01:05:25;;;;;;;11.40;3.22;;;21.00;89.70;;;;;;5045523;28;20326;-31
2023/06/27 01:07:58;;;;;;;7.97;2.63;;;21.00;89.70;;;;;;5045174;28;20287;-30
2023/06/27 01:10:44;;;;;;;5.55;2.58;;;21.00;90.00;;;;;;5044005;28;20227;-31
2023/06/27 01:13:29;;;;;;;7.75;2.65;;;20.90;89.80;;;;;;5043577;28;20740;-30
2023/06/27 01:15:59;;;;;;;8.23;2.30;;;20.90;90.10;;;;;;5045518;28;20200;-30
2023/06/27 01:18:31;;;;;;;6.75;2.53;;;20.80;89.90;;;;;;5044017;28;20573;-30
2023/06/27 01:21:00;;;;;;;8.80;2.63;;;20.90;90.00;;;;;;5045486;28;20621;-30
2023/06/27 01:23:33;;;;;;;6.93;2.25;;;20.80;89.90;;;;;;5059915;28;20236;-30
2023/06/27 01:26:09;;;;;;;4.20;2.03;;;20.80;90.00;;;;;;5045095;28;20203;-31
2023/06/27 01:28:36;;;;;;;8.20;2.60;;;20.80;90.10;;;;;;5043419;28;20674;-30
2023/06/27 01:31:03;;;;;;;6.82;2.80;;;20.80;89.90;;;;;;5045234;28;20208;-30
2023/06/27 01:33:34;;;;;;;4.50;2.30;;;20.80;90.10;;;;;;5043785;28;20208;-30
2023/06/27 01:36:13;;;;;;;8.20;2.65;;;20.70;90.20;;;;;;5045245;28;20208;-31
2023/06/27 01:39:20;;;;;;;8.50;2.67;;;20.70;90.20;;;;;;5044857;28;20262;-31
2023/06/27 01:41:55;;;;;;;4.22;2.03;;;20.70;90.40;;;;;;4966637;28;20722;-31
2023/06/27 01:44:29;;;;;;;5.63;1.92;;;20.70;90.20;;;;;;5035835;28;20610;-31
2023/06/27 01:46:56;;;;;;;6.85;2.22;;;20.60;90.10;;;;;;5044929;28;20294;-31
2023/06/27 01:49:24;;;;;;;8.60;2.13;;;20.60;90.10;;;;;;5045079;28;20196;-33
2023/06/27 01:51:58;;;;;;;6.97;2.00;;;20.60;90.20;;;;;;5027057;28;20243;-31
2023/06/27 01:54:26;;;;;;;6.80;2.20;;;20.50;90.10;;;;;;5044707;28;20716;-31
2023/06/27 01:56:55;;;;;;;6.65;2.20;;;20.50;90.10;;;;;;5042550;28;20311;-37
2023/06/27 01:59:22;;;;;;;7.85;2.10;;;20.50;90.20;;;;;;5043269;28;20277;-37
2023/06/27 02:01:49;;;;;;;6.25;2.28;;;20.50;90.20;;;;;;5044685;28;20222;-33
2023/06/27 02:04:19;;;;;;;7.15;2.22;;;20.50;90.30;;;;;;5042671;28;20725;-30
2023/06/27 02:06:47;;;;;;;8.05;2.30;;;20.40;90.30;;;;;;5044086;28;20214;-30
2023/06/27 02:09:14;;;;;;;5.55;2.35;;;20.40;90.40;;;;;;5042083;28;20218;-30
2023/06/27 02:11:43;;;;;;;3.75;1.60;;;20.40;90.30;;;;;;5044159;28;20208;-30
2023/06/27 02:14:10;;;;;;;7.13;2.22;;;20.40;90.30;;;;;;5044613;28;20434;-30
2023/06/27 02:16:38;;;;;;;6.22;1.73;;;20.40;90.40;;;;;;5044336;28;20251;-30
2023/06/27 02:19:08;;;;;;;5.95;1.70;;;20.30;90.40;;;;;;5042917;28;20272;-28
2023/06/27 02:21:40;;;;;;;5.82;1.90;;;20.30;90.40;;;;;;5042528;28;20208;-28
2023/06/27 02:24:07;;;;;;;4.28;1.88;;;20.30;90.40;;;;;;5042681;28;20224;-30
2023/06/27 02:26:35;;;;;;;6.82;1.92;;;20.30;90.40;;;;;;5043981;28;20196;-30
2023/06/27 02:29:02;;;;;;;6.80;2.42;;;20.30;90.30;;;;;;5043824;28;20200;-30
2023/06/27 02:31:35;;;;;;;6.78;1.80;;;20.20;90.40;;;;;;5042369;28;20265;-30
2023/06/27 02:34:04;;;;;;;7.47;2.63;;;20.20;90.40;;;;;;5044474;28;20521;-30
2023/06/27 02:36:34;;;;;;;6.97;1.98;;;20.10;90.50;;;;;;5042795;28;20215;-30
2023/06/27 02:39:01;;;;;;;6.78;2.05;;;20.10;90.50;;;;;;5042523;28;20212;-29
2023/06/27 02:41:33;;;;;;;6.95;2.10;;;20.10;90.50;;;;;;5044388;28;20208;-30
2023/06/27 02:44:02;;;;;;;4.40;1.90;;;20.10;90.70;;;;;;5041973;28;20220;-30
2023/06/27 02:46:32;;;;;;;5.53;2.20;;;20.10;90.60;;;;;;5044006;28;20199;-30
2023/06/27 02:49:01;;;;;;;6.72;2.28;;;20.10;90.60;;;;;;5043412;28;20216;-30
2023/06/27 02:51:31;;;;;;;6.03;2.25;;;20.10;90.70;;;;;;5043382;28;20196;-29
2023/06/27 02:53:58;;;;;;;6.03;2.00;;;20.00;90.70;;;;;;5043531;28;20274;-29
2023/06/27 02:56:26;;;;;;;6.60;2.20;;;20.00;90.70;;;;;;5041522;28;20200;-30
2023/06/27 02:58:55;;;;;;;4.82;1.83;;;20.00;90.70;;;;;;5043503;28;20273;-29
2023/06/27 03:01:24;;;;;;;6.38;1.90;;;20.00;90.80;;;;;;5043376;28;20712;-30
2023/06/27 03:03:54;;;;;;;8.38;1.98;;;20.00;90.80;;;;;;5041338;28;20259;-29
2023/06/27 03:06:44;;;;;;;7.18;2.33;;;20.00;90.80;;;;;;5043422;28;20700;-30
2023/06/27 03:09:11;;;;;;;10.00;2.35;;;20.00;90.90;;;;;;5043244;28;20209;-30
2023/06/27 03:11:40;;;;;;;6.05;2.13;;;20.00;90.80;;;;;;5041540;28;20246;-30
2023/06/27 03:14:10;;;;;;;7.22;2.20;;;20.00;91.00;;;;;;5043507;28;20637;-30
2023/06/27 03:16:37;;;;;;;4.88;2.05;;;19.90;91.00;;;;;;5042694;28;20193;-30
2023/06/27 03:19:07;;;;;;;7.30;2.67;;;19.90;91.00;;;;;;5025263;28;20204;-29
2023/06/27 03:21:36;;;;;;;5.90;2.17;;;19.90;91.10;;;;;;5040146;28;20274;-30
2023/06/27 03:24:04;;;;;;;10.02;2.40;;;19.90;91.10;;;;;;5042967;28;20228;-30
2023/06/27 03:26:31;;;;;;;7.78;2.13;;;19.90;91.10;;;;;;5043065;28;20250;-29
2023/06/27 03:28:58;;;;;;;8.10;2.13;;;19.90;91.10;;;;;;5041303;28;20246;-29
2023/06/27 03:31:25;;;;;;;7.70;2.45;;;19.90;91.10;;;;;;5042980;28;20215;-30
2023/06/27 03:33:57;;;;;;;7.15;2.33;;;19.80;91.10;;;;;;5043085;28;20644;-28
2023/06/27 03:36:33;;;;;;;11.00;2.35;;;19.80;91.20;;;;;;5042741;28;20197;-28
2023/06/27 03:39:00;;;;;;;8.05;2.20;;;19.80;91.20;;;;;;5043600;28;20715;-27
2023/06/27 03:41:30;;;;;;;8.07;2.22;;;19.80;91.20;;;;;;5057393;28;20231;-28
2023/06/27 03:44:00;;;;;;;7.25;2.13;;;19.80;91.20;;;;;;5040884;28;20315;-28
2023/06/27 03:46:27;;;;;;;6.65;2.97;;;19.70;91.30;;;;;;5040801;28;20203;-28
2023/06/27 03:48:58;;;;;;;7.68;2.40;;;19.70;91.30;;;;;;5042547;28;20266;-27
2023/06/27 03:51:26;;;;;;;6.63;1.92;;;19.70;91.40;;;;;;5057045;28;20196;-28
2023/06/27 03:53:55;;;;;;;8.57;2.53;;;19.70;91.40;;;;;;5040817;28;20216;-28
2023/06/27 03:56:25;;;;;;;8.10;2.22;;;19.70;91.40;;;;;;5041977;28;20265;-28
2023/06/27 03:58:57;;;;;;;7.97;2.10;;;19.60;91.50;;;;;;5042327;28;20235;-28
2023/06/27 04:01:27;;;;;;;8.07;2.40;;;19.70;91.50;;;;;;5042224;28;20693;-28
2023/06/27 04:03:56;;;;;;;8.23;2.83;;;19.60;91.50;;;;;;5042490;28;20311;-28
2023/06/27 04:06:23;;;;;;;5.38;1.90;;;19.60;91.50;;;;;;5040526;28;20214;-28
2023/06/27 04:08:51;;;;;;;6.68;2.15;;;19.70;91.60;;;;;;5040599;28;20742;-28
2023/06/27 04:11:18;;;;;;;6.68;2.45;;;19.60;91.70;;;;;;5042523;28;20204;-28
2023/06/27 04:13:45;;;;;;;5.82;2.40;;;19.70;91.70;;;;;;5041227;28;20204;-28
2023/06/27 04:16:13;;;;;;;8.80;2.28;;;19.70;91.70;;;;;;5042129;28;20212;-28
2023/06/27 04:18:42;;;;;;;9.80;2.50;;;19.70;91.80;;;;;;5042341;28;20197;-27
2023/06/27 04:21:12;;;;;;;7.78;2.80;;;19.60;91.80;;;;;;5041834;28;20219;-28
2023/06/27 04:23:41;;;;;;;6.25;2.20;;;19.60;91.70;;;;;;5042014;28;20325;-28
2023/06/27 04:26:14;;;;;;;7.13;2.53;;;19.60;91.80;;;;;;5040604;28;20459;-28
2023/06/27 04:28:47;;;;;;;8.13;2.70;;;19.60;91.80;;;;;;5042234;28;20253;-28
2023/06/27 04:31:14;;;;;;;8.48;2.47;;;19.70;91.90;;;;;;5042543;28;20204;-28
2023/06/27 04:33:44;;;;;;;9.48;2.60;;;19.60;91.80;;;;;;5046117;28;20650;-28
2023/06/27 04:36:15;;;;;;;9.45;2.47;;;19.70;92.30;;;;;;5045547;28;20200;-28
2023/06/27 04:38:50;;;;;;;7.15;2.40;;;19.70;92.00;;;;;;5046110;28;20207;-28
2023/06/27 04:41:17;;;;;;;9.13;2.38;;;19.70;92.00;;;;;;5045846;28;20207;-28
2023/06/27 04:43:45;;;;;;;7.13;2.30;;;19.70;92.00;;;;;;5045269;28;20242;-28
2023/06/27 04:46:14;;;;;;;7.07;2.47;;;19.70;92.10;;;;;;5044434;28;20212;-28
2023/06/27 04:48:42;;;;;;;13.02;3.08;;;19.70;92.10;;;;;;5046261;28;20201;-28
2023/06/27 04:51:09;;;;;;;11.10;2.78;;;19.70;92.10;;;;;;5046409;28;20211;-29
2023/06/27 04:53:36;;;;;;;10.23;2.60;;;19.70;92.10;;;;;;5046561;28;20253;-30
2023/06/27 04:56:03;;;;;;;7.93;2.58;;;19.70;92.30;;;;;;5044352;28;20212;-30
2023/06/27 04:58:31;;;;;;;6.93;2.72;;;19.70;92.20;;;;;;5045201;28;20209;-29
2023/06/27 05:00:58;;;;;;;8.82;2.75;;;19.70;92.20;;;;;;5046497;28;20232;-30
2023/06/27 05:03:25;;;;;;;8.27;2.53;;;19.70;92.20;;;;;;5046110;28;20222;-30
2023/06/27 05:05:55;;;;;;;10.35;3.15;;;19.70;92.20;;;;;;5044960;28;20635;-30
2023/06/27 05:08:24;;;;;;;9.48;2.75;;;19.70;92.30;;;;;;5044802;28;20287;-30
2023/06/27 05:10:54;;;;;;;8.70;2.65;;;19.70;92.30;;;;;;5046228;28;20200;-30
2023/06/27 05:13:23;;;;;;;9.30;3.00;;;19.70;92.40;;;;;;5044362;28;20230;-30
2023/06/27 05:15:50;;;;;;;6.63;2.63;;;19.70;92.40;;;;;;5045818;28;20282;-30
2023/06/27 05:18:20;;;;;;;10.57;3.08;;;19.70;92.40;;;;;;5060556;28;20200;-29
2023/06/27 05:20:47;;;;;;;6.22;2.30;;;19.80;92.50;;;;;;5045556;28;20761;-29
2023/06/27 05:23:17;;;;;;;7.43;3.30;;;19.80;92.70;;;;;;5043488;28;20334;-29
2023/06/27 05:25:44;;;;;;;6.43;2.60;;;19.80;92.70;;;;;;5043311;28;20278;-30
2023/06/27 05:28:14;;;;;;;14.95;3.45;;;19.80;92.70;;;;;;5043314;28;20611;-29
2023/06/27 05:30:43;;;;;;;8.93;2.90;;;19.90;92.80;;;;;;5060156;28;20197;-29
2023/06/27 05:33:13;;;;;;;9.05;3.03;;;19.90;92.80;;;;;;5043922;28;20205;-29
2023/06/27 05:35:43;;;;;;;8.82;2.85;;;19.90;92.80;;;;;;5043063;28;20215;-29
2023/06/27 05:38:12;;;;;;;11.38;3.28;;;20.00;92.70;;;;;;5043261;28;20216;-30
2023/06/27 05:40:41;;;;;;;7.82;3.50;;;20.00;92.80;;;;;;5044885;28;20602;-29
2023/06/27 05:43:11;;;;;;;9.13;2.97;;;20.00;92.80;;;;;;5042326;28;20919;-29
2023/06/27 05:45:40;;;;;;;13.23;3.90;;;20.10;92.90;;;;;;5044901;28;20227;-30
2023/06/27 05:48:12;;;;;;;10.75;3.00;;;20.10;92.90;;;;;;5044939;28;20315;-28
2023/06/27 05:50:39;;;;;;;8.60;2.78;;;20.20;93.10;;;;;;5043545;28;20205;-28
2023/06/27 05:53:09;;;;;;;10.55;3.15;;;20.20;93.00;;;;;;5043254;28;20211;-28
2023/06/27 05:55:37;;;;;;;10.55;3.00;;;20.20;93.00;;;;;;5042681;28;20204;-28
2023/06/27 05:58:08;;;;;;;10.05;3.88;;;20.30;93.00;;;;;;5044488;28;20200;-28
2023/06/27 06:00:39;;;;;;;10.18;3.30;;;20.30;93.20;;;;;;5042996;28;20211;-30
2023/06/27 06:03:06;;;;;;;9.10;2.85;;;20.40;93.20;;;;;;5044540;28;20248;-30
2023/06/27 06:05:35;;;;;;;7.80;2.90;;;20.40;93.20;;;;;;5042756;28;20242;-30
2023/06/27 06:08:05;;;;;;;7.93;2.88;;;20.50;93.20;;;;;;5044032;28;20200;-30
2023/06/27 06:10:35;;;;;;;14.48;3.63;;;20.50;93.30;;;;;;5043002;28;20258;-30
2023/06/27 06:13:03;;;;;;;10.63;3.00;;;20.60;93.40;;;;;;5042935;28;20291;-30
2023/06/27 06:15:30;;;;;;;6.65;2.97;;;20.70;93.70;;;;;;5044113;28;20662;-30
2023/06/27 06:17:57;;;;;;;12.00;3.33;;;20.70;93.40;;;;;;5044284;28;20204;-30
2023/06/27 06:20:26;;;;;;;11.07;3.40;;;20.80;93.50;;;;;;5042520;28;20216;-30
2023/06/27 06:22:53;;;;;;;12.55;3.83;;;20.80;93.50;;;;;;5042313;28;20334;-29
2023/06/27 06:25:20;;;;;;;10.50;3.45;;;20.90;93.60;;;;;;5044050;28;20600;-30
2023/06/27 06:27:48;;;;;;;8.98;2.97;;;21.00;93.60;;;;;;5043682;28;20196;-29
2023/06/27 06:30:18;;;;;;;8.88;3.05;;;21.00;93.50;;;;;;5042368;28;20364;-30
2023/06/27 06:32:45;;;;;;;6.90;2.90;;;21.10;93.60;;;;;;5043874;28;20204;-30
2023/06/27 06:35:17;;;;;;;7.00;2.80;;;21.10;93.60;;;;;;5042190;28;20525;-30
2023/06/27 06:37:44;;;;;;;10.52;3.15;;;21.20;93.70;;;;;;5041691;28;20281;-31
2023/06/27 06:40:17;;;;;;;7.93;3.17;;;21.20;93.60;;;;;;5043626;28;20207;-30
2023/06/27 06:42:49;;;;;;;8.88;3.15;;;21.20;93.60;;;;;;5043376;28;20208;-30
2023/06/27 06:45:18;;;;;;;8.48;3.00;;;21.30;93.70;;;;;;5043617;28;20244;-30
2023/06/27 06:47:48;;;;;;;15.48;3.42;;;21.30;93.70;;;;;;5043110;28;20200;-30
2023/06/27 06:50:20;;;;;;;9.30;2.90;;;21.30;93.80;;;;;;5041331;28;20231;-30
2023/06/27 06:52:49;;;;;;;6.45;2.50;;;21.30;93.70;;;;;;5041740;28;21083;-30
2023/06/27 06:55:17;;;;;;;9.77;3.30;;;21.40;93.70;;;;;;5041597;28;20204;-30
2023/06/27 06:57:49;;;;;;;9.73;2.83;;;21.40;93.70;;;;;;5043181;28;20216;-28
2023/06/27 07:00:17;;;;;;;10.85;2.70;;;21.50;93.80;;;;;;5043600;28;20204;-30
2023/06/27 07:02:47;;;;;;;11.20;3.22;;;21.50;93.90;;;;;;5043494;28;20201;-30
2023/06/27 07:05:14;;;;;;;8.45;2.70;;;21.60;93.90;;;;;;5024769;28;20612;-30
2023/06/27 07:07:44;;;;;;;8.43;3.25;;;21.70;93.90;;;;;;5041523;28;20216;-28
2023/06/27 07:10:11;;;;;;;9.15;3.03;;;21.70;94.00;;;;;;5043426;28;20196;-28
2023/06/27 07:12:43;;;;;;;7.50;3.00;;;21.80;94.00;;;;;;5041851;28;20674;-28
2023/06/27 07:15:14;;;;;;;8.43;2.78;;;21.80;93.90;;;;;;5043553;28;20200;-28
2023/06/27 07:17:41;;;;;;;8.73;2.90;;;21.90;94.00;;;;;;5043397;28;20211;-28
2023/06/27 07:20:09;;;;;;;8.65;2.92;;;21.90;94.00;;;;;;5057851;28;20196;-28
2023/06/27 07:22:38;;;;;;;10.68;3.10;;;22.00;94.00;;;;;;5041641;28;20692;-28
2023/06/27 07:25:06;;;;;;;6.22;2.40;;;22.10;94.00;;;;;;5041183;28;20323;-27
2023/06/27 07:27:33;;;;;;;7.40;2.33;;;22.10;94.00;;;;;;5041289;28;20686;-27
2023/06/27 07:30:00;;;;;;;6.40;2.30;;;22.10;94.00;;;;;;5041698;28;20196;-28
2023/06/27 07:32:30;;;;;;;9.43;2.75;;;22.20;94.00;;;;;;5040910;28;20585;-27
2023/06/27 07:35:00;;;;;;;7.68;2.45;;;22.20;94.00;;;;;;5042617;28;20270;-27
2023/06/27 07:37:27;;;;;;;6.78;2.70;;;22.20;93.90;;;;;;5041020;28;20204;-27
2023/06/27 07:39:54;;;;;;;9.52;2.67;;;22.30;94.30;;;;;;5024926;28;20204;-28
2023/06/27 07:42:25;;;;;;;6.43;2.50;;;22.30;94.00;;;;;;5043090;28;20227;-28
2023/06/27 07:44:53;;;;;;;7.20;2.33;;;22.40;94.00;;;;;;5041334;28;20922;-30
2023/06/27 07:47:22;;;;;;;5.88;2.20;;;22.40;94.00;;;;;;5057955;28;20306;-26
2023/06/27 07:49:52;;;;;;;8.70;2.50;;;22.50;94.00;;;;;;5040863;28;20570;-28
2023/06/27 07:52:19;;;;;;;6.15;2.45;;;22.50;94.00;;;;;;5041295;28;20211;-30
2023/06/27 07:54:50;;;;;;;7.00;2.80;;;22.50;94.00;;;;;;5041671;28;20307;-30
2023/06/27 07:57:24;;;;;;;6.47;2.42;;;22.60;94.10;;;;;;5041318;28;20949;-30
2023/06/27 07:59:52;;;;;;;11.45;3.22;;;22.60;94.20;;;;;;5040796;28;20200;-30
2023/06/27 08:02:21;;;;;;;7.82;2.60;;;22.70;94.10;;;;;;5042273;28;20234;-30
2023/06/27 08:04:54;;;;;;;7.90;2.65;;;22.80;94.20;;;;;;5041141;28;20227;-30
2023/06/27 08:07:21;;;;;;;9.55;2.70;;;22.90;94.20;;;;;;5042381;28;20690;-30
2023/06/27 08:09:48;;;;;;;9.07;2.35;;;22.90;94.20;;;;;;5044855;28;20733;-30
2023/06/27 08:12:16;;;;;;;5.97;2.10;;;23.00;94.20;;;;;;5046412;28;20204;-30
2023/06/27 08:14:47;;;;;;;5.75;2.13;;;23.00;94.20;;;;;;5045319;28;20223;-31
2023/06/27 08:17:17;;;;;;;5.53;2.35;;;23.10;94.20;;;;;;5046413;28;20205;-30
2023/06/27 08:19:46;;;;;;;10.25;2.95;;;23.10;94.20;;;;;;5046529;28;20269;-30
2023/06/27 08:22:16;;;;;;;9.25;2.65;;;23.20;94.20;;;;;;5044108;28;20658;-31
2023/06/27 08:24:45;;;;;;;7.13;2.50;;;23.20;94.20;;;;;;5046140;28;20251;-30
2023/06/27 08:27:13;;;;;;;8.43;2.95;;;23.20;94.10;;;;;;5060554;28;20188;-30
2023/06/27 08:29:40;;;;;;;5.80;2.10;;;23.20;94.10;;;;;;5044859;28;20192;-30
2023/06/27 08:32:08;;;;;;;8.88;2.63;;;23.20;94.00;;;;;;5060522;28;20204;-30
2023/06/27 08:34:41;;;;;;;6.95;3.00;;;23.20;94.00;;;;;;5044895;28;20231;-30
2023/06/27 08:37:12;;;;;;;8.50;2.75;;;23.20;94.10;;;;;;5046593;28;20216;-30
2023/06/27 08:39:40;;;;;;;7.75;2.65;;;23.30;94.10;;;;;;5044533;28;20199;-27
2023/06/27 08:42:07;;;;;;;7.00;2.10;;;23.30;94.10;;;;;;5045808;28;20211;-27
2023/06/27 08:44:39;;;;;;;6.85;2.50;;;23.40;94.20;;;;;;5044228;28;20651;-27
2023/06/27 08:47:12;;;;;;;10.88;3.28;;;23.40;94.20;;;;;;5044851;28;20208;-27
2023/06/27 08:49:48;;;;;;;7.32;2.58;;;23.50;94.20;;;;;;5060596;28;20223;-27
2023/06/27 08:52:19;;;;;;;7.07;2.33;;;23.50;94.20;;;;;;5045752;28;20207;-29
2023/06/27 08:54:53;;;;;;;4.95;1.83;;;23.60;94.20;;;;;;5044170;28;20216;-30
2023/06/27 08:57:25;;;;;;;4.38;1.90;;;23.60;94.00;;;;;;5044493;28;20200;-28
2023/06/27 08:59:57;;;;;;;6.43;2.78;;;23.60;94.00;;;;;;5043821;28;20240;-27
2023/06/27 09:02:28;;;;;;;4.85;2.17;;;23.60;94.00;;;;;;5044032;28;20219;-32
2023/06/27 09:04:58;;;;;;;9.18;2.78;;;23.60;94.00;;;;;;5045631;28;20607;-27
2023/06/27 09:07:25;;;;;;;7.47;2.45;;;23.70;93.90;;;;;;5044194;28;20204;-28
2023/06/27 09:09:53;;;;;;;7.40;2.15;;;23.70;93.90;;;;;;5044231;28;20682;-27
2023/06/27 09:12:24;;;;;;;6.18;2.28;;;23.70;93.90;;;;;;5045857;28;20239;-27
2023/06/27 09:14:53;;;;;;;4.45;2.22;;;23.70;93.70;;;;;;5046542;28;20246;-27
2023/06/27 09:17:20;;;;;;;10.68;2.35;;;23.70;93.70;;;;;;5044700;28;20219;-28
2023/06/27 09:19:50;;;;;;;4.28;1.90;;;23.70;93.50;;;;;;5045936;28;20253;-27
2023/06/27 09:22:20;;;;;;;6.25;2.22;;;23.70;93.60;;;;;;5044243;28;20249;-27
2023/06/27 09:25:08;;;;;;;5.15;1.88;;;23.70;93.60;;;;;;5060750;28;20732;-27
2023/06/27 09:27:40;;;;;;;4.28;1.67;;;23.70;93.40;;;;;;5045839;28;20196;-28
2023/06/27 09:30:11;;;;;;;11.77;2.35;;;23.70;93.20;;;;;;5044605;28;20582;-27
2023/06/27 09:32:57;;;;;;;7.80;1.77;;;23.70;93.30;;;;;;5044395;28;20530;-27
2023/06/27 09:35:28;;;;;;;3.55;1.52;;;23.70;93.20;;;;;;5045755;28;20246;-27
2023/06/27 09:38:15;;;;;;;3.80;1.75;;;23.70;93.20;;;;;;5044526;28;20207;-28
2023/06/27 09:40:45;;;;;;;4.28;1.90;;;23.70;93.30;;;;;;5045321;28;20250;-28
2023/06/27 09:43:14;;;;;;;5.93;1.88;;;23.70;93.30;;;;;;5043862;28;20210;-27
2023/06/27 09:45:42;;;;;;;4.78;1.88;;;23.80;93.30;;;;;;5045443;28;20251;-27
2023/06/27 09:48:10;;;;;;;6.15;1.90;;;23.80;93.30;;;;;;5045139;28;20223;-27
2023/06/27 09:50:40;;;;;;;7.30;2.38;;;23.80;93.20;;;;;;5044791;28;20662;-27
2023/06/27 09:53:10;;;;;;;5.28;1.98;;;23.80;93.20;;;;;;5045012;28;20200;-27
2023/06/27 09:55:44;;;;;;;4.15;1.92;;;23.90;93.20;;;;;;5044087;28;20570;-27
2023/06/27 09:58:14;;;;;;;7.07;1.90;;;23.90;93.10;;;;;;5045061;28;20209;-27
2023/06/27 10:00:43;;;;;;;5.15;2.03;;;23.90;93.20;;;;;;5044995;28;20503;-27
2023/06/27 10:03:10;;;;;;;4.88;1.95;;;23.90;93.10;;;;;;5045201;28;20204;-27
2023/06/27 10:05:37;;;;;;;4.63;1.85;;;24.00;93.10;;;;;;5044589;28;20315;-27
2023/06/27 10:08:17;;;;;;;5.00;1.80;;;24.00;93.10;;;;;;5044550;28;20204;-27
2023/06/27 10:10:44;;;;;;;3.90;1.63;;;24.00;93.00;;;;;;5045043;28;20232;-27
2023/06/27 10:13:15;;;;;;;3.80;1.42;;;24.00;92.90;;;;;;5043305;28;20215;-28
2023/06/27 10:15:44;;;;;;;3.78;1.75;;;24.10;93.00;;;;;;5044980;28;20753;-32
2023/06/27 10:18:15;;;;;;;2.97;1.50;;;24.10;92.90;;;;;;5044738;28;21036;-30
2023/06/27 10:20:47;;;;;;;4.75;1.30;;;24.10;92.80;;;;;;5043142;28;20560;-30
2023/06/27 10:23:15;;;;;;;3.22;1.63;;;24.10;92.90;;;;;;5044170;28;20263;-29
2023/06/27 10:25:43;;;;;;;5.68;1.63;;;24.20;92.90;;;;;;5042821;28;20655;-30
2023/06/27 10:28:15;;;;;;;6.38;2.03;;;24.20;93.00;;;;;;5044508;28;20291;-30
2023/06/27 10:30:47;;;;;;;4.88;1.67;;;24.30;92.80;;;;;;5042180;28;20204;-30
2023/06/27 10:33:27;;;;;;;3.70;1.40;;;24.40;93.00;;;;;;5044324;28;20640;-31
2023/06/27 10:36:05;;;;;;;4.45;1.00;;;24.50;92.80;;;;;;5042607;28;20216;-27
2023/06/27 10:38:38;;;;;;;4.93;1.50;;;24.50;92.80;;;;;;5044116;28;20208;-27
2023/06/27 10:41:09;;;;;;;3.17;1.38;;;24.60;92.80;;;;;;5059259;28;20200;-27
2023/06/27 10:43:48;;;;;;;4.13;1.30;;;24.70;92.90;;;;;;5042326;28;20334;-27
2023/06/27 10:46:30;;;;;;;2.42;1.10;;;24.70;92.60;;;;;;5042553;28;20241;-28
2023/06/27 10:49:06;;;;;;;3.45;1.35;;;24.80;92.60;;;;;;5044765;28;20751;-30
2023/06/27 10:51:43;;;;;;;1.95;1.10;;;24.80;92.60;;;;;;5042636;28;20538;-30
2023/06/27 10:54:14;;;;;;;4.43;1.13;;;24.80;92.50;;;;;;5042754;28;20552;-31
2023/06/27 10:56:58;;;;;;;1.73;1.10;;;24.80;92.30;;;;;;5040640;28;20227;-31
2023/06/27 10:59:28;;;;;;;2.13;1.08;;;24.90;92.40;;;;;;5040894;28;20220;-30
2023/06/27 11:02:02;;;;;;;2.05;1.00;;;24.90;92.50;;;;;;5042601;28;20239;-30
2023/06/27 11:04:43;;;;;;;2.58;1.30;;;24.90;92.30;;;;;;5041335;28;20301;-30
2023/06/27 11:07:23;;;;;;;3.10;1.38;;;24.90;92.10;;;;;;5042364;28;20306;-30
2023/06/27 11:09:55;;;;;;;5.55;1.40;;;24.90;92.10;;;;;;5043320;28;20207;-30
2023/06/27 11:12:37;;;;;;;8.95;1.15;;;24.90;92.10;;;;;;5042805;28;20204;-30
2023/06/27 11:15:06;;;;;;;2.50;1.17;;;24.90;92.10;;;;;;5042707;28;20204;-30
2023/06/27 11:17:39;;;;;;;3.60;1.20;;;24.90;92.00;;;;;;5042594;28;20200;-30
2023/06/27 11:20:09;;;;;;;4.85;1.10;;;24.80;91.60;;;;;;5040700;28;20188;-30
2023/06/27 11:22:39;;;;;;;3.53;1.40;;;24.70;91.60;;;;;;5057746;28;20236;-30
2023/06/27 11:25:16;;;;;;;5.57;1.73;;;24.70;91.80;;;;;;5043017;28;20297;-30
2023/06/27 11:27:44;;;;;;;3.90;1.75;;;24.70;91.60;;;;;;5042573;28;20208;-30
2023/06/27 11:30:19;;;;;;;3.38;1.20;;;24.70;91.70;;;;;;5040900;28;20313;-30
2023/06/27 11:32:50;;;;;;;2.38;1.40;;;24.70;91.80;;;;;;5042495;28;20208;-30
2023/06/27 11:35:20;;;;;;;4.78;1.48;;;24.80;91.90;;;;;;5057663;28;20219;-30
2023/06/27 11:37:54;;;;;;;5.97;1.20;;;24.80;91.80;;;;;;5043206;28;21056;-30
2023/06/27 11:40:24;;;;;;;2.72;1.40;;;24.90;92.00;;;;;;5042988;28;20203;-31
2023/06/27 11:43:05;;;;;;;4.45;1.38;;;24.90;91.90;;;;;;5041468;28;20276;-31
2023/06/27 11:45:33;;;;;;;3.38;1.23;;;25.00;91.90;;;;;;5040705;28;20273;-30
2023/06/27 11:48:04;;;;;;;5.07;1.67;;;25.00;91.90;;;;;;5042458;28;20196;-31
2023/06/27 11:50:33;;;;;;;2.35;1.20;;;25.00;91.80;;;;;;5041117;28;20688;-30
2023/06/27 11:53:01;;;;;;;5.15;1.50;;;25.00;91.90;;;;;;5042461;28;20832;-30
2023/06/27 11:55:28;;;;;;;4.28;1.25;;;25.10;91.90;;;;;;5042121;28;20204;-30
2023/06/27 11:57:58;;;;;;;3.13;1.10;;;25.10;91.90;;;;;;5042330;28;20287;-31
2023/06/27 12:00:29;;;;;;;2.45;1.20;;;25.20;91.90;;;;;;5042207;28;20326;-30
2023/06/27 12:03:03;;;;;;;3.60;1.23;;;25.20;91.90;;;;;;5040444;28;20216;-30
2023/06/27 12:05:33;;;;;;;3.00;1.23;;;25.30;91.90;;;;;;5042182;28;20220;-27
2023/06/27 12:08:06;;;;;;;2.90;1.05;;;25.30;91.90;;;;;;5042186;28;20475;-27
2023/06/27 12:10:52;;;;;;;3.67;1.40;;;25.40;91.90;;;;;;5042283;28;20552;-27
2023/06/27 12:13:19;;;;;;;3.25;1.17;;;25.50;92.00;;;;;;5042068;28;20196;-27
2023/06/27 12:15:49;;;;;;;3.28;1.20;;;25.50;92.00;;;;;;5041906;28;20200;-27
2023/06/27 12:18:24;;;;;;;4.70;1.77;;;25.60;91.70;;;;;;5042453;28;20582;-27
2023/06/27 12:20:52;;;;;;;2.80;1.33;;;25.60;91.70;;;;;;5042523;28;20549;-27
2023/06/27 12:23:19;;;;;;;2.00;1.08;;;25.70;91.60;;;;;;5041866;28;20652;-27
2023/06/27 12:25:47;;;;;;;2.55;1.20;;;25.70;91.50;;;;;;5040122;28;20216;-27
2023/06/27 12:28:17;;;;;;;4.40;1.45;;;25.70;91.90;;;;;;5056618;28;20196;-27
2023/06/27 12:30:44;;;;;;;3.47;1.48;;;25.70;91.60;;;;;;5041795;28;20219;-27
2023/06/27 12:33:14;;;;;;;3.15;1.50;;;25.80;91.50;;;;;;5040532;28;20259;-27
2023/06/27 12:35:44;;;;;;;4.22;1.48;;;25.80;91.30;;;;;;5042108;28;20227;-27
2023/06/27 12:38:13;;;;;;;3.75;1.15;;;25.80;91.40;;;;;;5041750;28;20303;-27
2023/06/27 12:40:41;;;;;;;2.83;1.30;;;25.80;91.20;;;;;;5040779;28;20236;-27
2023/06/27 12:43:11;;;;;;;3.65;1.50;;;25.90;91.50;;;;;;5040102;28;20212;-28
2023/06/27 12:45:38;;;;;;;4.50;1.33;;;25.90;91.30;;;;;;5041819;28;20215;-25
2023/06/27 12:48:13;;;;;;;2.70;1.38;;;25.90;91.40;;;;;;5040123;28;20195;-26
2023/06/27 12:50:44;;;;;;;5.57;1.65;;;26.00;91.40;;;;;;5056025;28;20292;-27
2023/06/27 12:53:12;;;;;;;3.90;1.50;;;26.00;91.30;;;;;;5042875;28;20200;-27
2023/06/27 12:55:43;;;;;;;3.22;1.45;;;26.00;91.20;;;;;;5043624;28;20200;-28
2023/06/27 12:58:11;;;;;;;5.82;1.98;;;26.00;91.10;;;;;;5043575;28;20239;-27
2023/06/27 13:00:42;;;;;;;4.32;1.30;;;26.00;91.10;;;;;;5043239;28;20309;-27